createdAt,value
2022-12-22T00:01:07.414Z,25.45
2022-12-22T00:03:53.111Z,28.80
2022-12-22T00:06:40.068Z,27.10
2022-12-22T00:09:25.892Z,24.10
2022-12-22T00:12:11.810Z,24.27
2022-12-22T00:14:57.863Z,29.08
2022-12-22T00:17:46.996Z,26.23
2022-12-22T00:20:35.802Z,27.35
2022-12-22T00:23:23.983Z,27.77
2022-12-22T00:26:09.700Z,28.05
2022-12-22T00:28:55.832Z,27.48
2022-12-22T00:31:42.817Z,25.17
2022-12-22T00:34:33.177Z,30.55
2022-12-22T00:37:19.047Z,28.52
2022-12-22T00:40:06.478Z,30.88
2022-12-22T00:42:52.460Z,30.38
2022-12-22T00:45:38.976Z,22.45
2022-12-22T00:48:28.221Z,23.20
2022-12-22T00:51:14.391Z,21.73
2022-12-22T00:53:59.884Z,22.75
2022-12-22T00:56:47.545Z,18.88
2022-12-22T00:59:33.274Z,19.85
2022-12-22T01:02:19.382Z,19.45
2022-12-22T01:05:09.003Z,19.90
2022-12-22T01:07:55.987Z,18.63
2022-12-22T01:10:43.664Z,21.27
2022-12-22T01:13:32.029Z,21.60
2022-12-22T01:16:18.702Z,21.90
2022-12-22T01:19:04.751Z,19.52
2022-12-22T01:21:50.832Z,19.70
2022-12-22T01:24:37.310Z,24.23
2022-12-22T01:27:23.759Z,23.38
2022-12-22T01:30:10.793Z,26.02
2022-12-22T01:32:56.678Z,23.58
2022-12-22T01:35:45.005Z,22.40
2022-12-22T01:38:30.804Z,23.13
2022-12-22T01:41:18.524Z,27.35
2022-12-22T01:44:04.355Z,25.42
2022-12-22T01:46:54.371Z,27.02
2022-12-22T01:49:44.725Z,26.60
2022-12-22T01:52:32.706Z,98.40
2022-12-22T01:55:22.242Z,76.20
2022-12-22T01:58:08.008Z,45.47
2022-12-22T02:00:53.580Z,68.65
2022-12-22T02:03:41.883Z,45.15
2022-12-22T02:06:45.319Z,34.90
2022-12-22T02:09:46.123Z,31.92
2022-12-22T02:12:38.585Z,29.67
2022-12-22T02:15:32.093Z,30.02
2022-12-22T02:18:26.396Z,25.90
2022-12-22T02:21:19.250Z,30.02
2022-12-22T02:24:30.859Z,27.58
2022-12-22T02:27:20.488Z,28.50
2022-12-22T02:30:10.437Z,29.00
2022-12-22T02:33:03.594Z,28.75
2022-12-22T02:36:02.917Z,30.13
2022-12-22T02:38:59.660Z,28.98
2022-12-22T02:41:54.656Z,26.58
2022-12-22T02:44:50.650Z,29.08
2022-12-22T02:47:42.119Z,31.48
2022-12-22T02:50:36.208Z,29.33
2022-12-22T02:53:24.493Z,35.70
2022-12-22T02:56:17.975Z,31.92
2022-12-22T02:59:04.084Z,35.45
2022-12-22T03:01:52.080Z,32.45
2022-12-22T03:04:38.055Z,40.88
2022-12-22T03:07:24.184Z,47.53
2022-12-22T03:10:09.764Z,44.28
2022-12-22T03:12:55.970Z,33.05
2022-12-22T03:15:41.554Z,37.25
2022-12-22T03:18:30.711Z,33.75
2022-12-22T03:21:17.493Z,32.20
2022-12-22T03:24:03.405Z,29.70
2022-12-22T03:26:33.571Z,27.70
2022-12-22T03:29:01.905Z,29.60
2022-12-22T03:31:30.287Z,29.55
2022-12-22T03:34:00.114Z,30.25
2022-12-22T03:36:28.525Z,30.08
2022-12-22T03:38:56.845Z,28.70
2022-12-22T03:41:42.765Z,29.67
2022-12-22T03:44:28.939Z,29.55
2022-12-22T03:46:57.552Z,32.40
2022-12-22T03:49:27.385Z,34.25
2022-12-22T03:51:55.894Z,26.80
2022-12-22T03:54:28.233Z,24.63
2022-12-22T03:56:56.578Z,27.85
2022-12-22T03:59:24.957Z,25.40
2022-12-22T04:01:55.293Z,30.35
2022-12-22T04:04:25.425Z,28.83
2022-12-22T04:06:55.658Z,35.10
2022-12-22T04:09:24.999Z,32.25
2022-12-22T04:12:10.809Z,28.25
2022-12-22T04:14:39.341Z,22.70
2022-12-22T04:17:09.871Z,23.33
2022-12-22T04:19:38.182Z,29.95
2022-12-22T04:22:07.915Z,26.00
2022-12-22T04:24:36.252Z,23.73
2022-12-22T04:27:05.235Z,24.23
2022-12-22T04:29:33.528Z,26.02
2022-12-22T04:32:03.195Z,27.38
2022-12-22T04:34:31.570Z,24.63
2022-12-22T04:37:08.397Z,26.40
2022-12-22T04:39:44.519Z,27.88
2022-12-22T04:42:12.863Z,24.75
2022-12-22T04:44:47.339Z,24.30
2022-12-22T04:47:15.632Z,21.63
2022-12-22T04:49:43.983Z,21.08
2022-12-22T04:52:12.352Z,22.02
2022-12-22T04:54:40.645Z,26.90
2022-12-22T04:57:10.387Z,23.17
2022-12-22T04:59:38.694Z,26.48
2022-12-22T05:02:07.118Z,22.10
2022-12-22T05:04:35.513Z,24.90
2022-12-22T05:07:03.839Z,25.75
2022-12-22T05:09:32.233Z,20.48
2022-12-22T05:12:00.564Z,17.10
2022-12-22T05:14:30.447Z,19.90
2022-12-22T05:16:58.878Z,19.38
2022-12-22T05:19:30.690Z,22.23
2022-12-22T05:21:59.327Z,22.27
2022-12-22T05:24:27.736Z,17.00
2022-12-22T05:26:56.100Z,15.13
2022-12-22T05:29:24.552Z,21.20
2022-12-22T05:31:54.265Z,18.85
2022-12-22T05:34:22.513Z,19.50
2022-12-22T05:36:50.838Z,20.58
2022-12-22T05:39:19.361Z,20.73
2022-12-22T05:41:47.962Z,20.88
2022-12-22T05:44:16.330Z,23.02
2022-12-22T05:46:44.811Z,20.80
2022-12-22T05:49:14.549Z,22.55
2022-12-22T05:51:42.995Z,24.10
2022-12-22T05:54:11.535Z,21.45
2022-12-22T05:56:39.823Z,19.35
2022-12-22T05:59:08.088Z,18.73
2022-12-22T06:01:36.395Z,20.85
2022-12-22T06:04:05.158Z,18.83
2022-12-22T06:06:34.949Z,17.83
2022-12-22T06:09:03.308Z,25.17
2022-12-22T06:11:31.525Z,28.42
2022-12-22T06:13:59.999Z,24.75
2022-12-22T06:16:28.395Z,22.30
2022-12-22T06:18:56.752Z,24.50
2022-12-22T06:21:25.040Z,27.70
2022-12-22T06:23:55.281Z,31.42
2022-12-22T06:26:23.672Z,35.05
2022-12-22T06:28:52.022Z,32.97
2022-12-22T06:31:20.319Z,28.02
2022-12-22T06:33:48.701Z,29.10
2022-12-22T06:36:17.265Z,23.38
2022-12-22T06:38:45.587Z,23.63
2022-12-22T06:41:15.293Z,21.05
2022-12-22T06:43:42.525Z,22.85
2022-12-22T06:46:11.016Z,22.42
2022-12-22T06:48:39.431Z,22.13
2022-12-22T06:51:07.974Z,22.60
2022-12-22T06:53:36.254Z,23.05
2022-12-22T06:56:04.585Z,20.27
2022-12-22T06:58:34.455Z,22.20
2022-12-22T07:01:08.811Z,24.42
2022-12-22T07:03:37.227Z,22.30
2022-12-22T07:06:06.017Z,22.95
2022-12-22T07:08:34.387Z,23.10
2022-12-22T07:11:02.632Z,21.73
2022-12-22T07:13:35.122Z,21.42
2022-12-22T07:16:04.623Z,20.33
2022-12-22T07:18:34.345Z,24.55
2022-12-22T07:21:07.924Z,24.10
2022-12-22T07:23:36.558Z,17.52
2022-12-22T07:26:06.776Z,20.35
2022-12-22T07:28:37.291Z,19.33
2022-12-22T07:31:06.576Z,19.08
2022-12-22T07:33:35.586Z,18.73
2022-12-22T07:36:06.673Z,21.30
2022-12-22T07:38:36.797Z,38.72
2022-12-22T07:41:25.727Z,36.08
2022-12-22T07:43:55.813Z,24.08
2022-12-22T07:46:24.699Z,25.70
2022-12-22T07:49:10.552Z,26.38
2022-12-22T07:51:40.906Z,19.48
2022-12-22T07:54:13.938Z,30.63
2022-12-22T07:56:42.793Z,24.42
2022-12-22T07:59:13.427Z,23.48
2022-12-22T08:01:42.688Z,27.05
2022-12-22T08:04:11.559Z,26.83
2022-12-22T08:06:40.057Z,26.98
2022-12-22T08:09:09.401Z,28.70
2022-12-22T08:11:37.732Z,23.13
2022-12-22T08:14:06.237Z,26.00
2022-12-22T08:16:36.172Z,19.55
2022-12-22T08:19:04.547Z,20.02
2022-12-22T08:21:32.819Z,22.42
2022-12-22T08:24:01.165Z,23.15
2022-12-22T08:26:35.896Z,20.88
2022-12-22T08:29:08.683Z,21.23
2022-12-22T08:31:41.284Z,17.13
2022-12-22T08:34:11.844Z,19.75
2022-12-22T08:36:43.227Z,19.67
2022-12-22T08:39:12.073Z,17.10
2022-12-22T08:41:53.612Z,17.10
2022-12-22T08:44:24.127Z,21.17
2022-12-22T08:46:55.646Z,22.58
2022-12-22T08:49:24.351Z,20.80
2022-12-22T08:51:52.741Z,19.30
2022-12-22T08:54:24.617Z,18.75
2022-12-22T08:56:54.169Z,17.85
2022-12-22T08:59:22.483Z,21.50
2022-12-22T09:01:51.429Z,19.63
2022-12-22T09:04:22.832Z,16.70
2022-12-22T09:06:53.507Z,18.65
2022-12-22T09:09:22.072Z,16.27
2022-12-22T09:11:50.937Z,17.40
2022-12-22T09:14:19.364Z,14.02
2022-12-22T09:16:47.820Z,20.52
2022-12-22T09:19:16.138Z,18.27
2022-12-22T09:21:46.235Z,15.32
2022-12-22T09:24:14.929Z,17.10
2022-12-22T09:26:43.429Z,18.88
2022-12-22T09:29:12.239Z,15.52
2022-12-22T09:31:41.822Z,14.95
2022-12-22T09:34:16.893Z,15.30
2022-12-22T09:36:48.491Z,15.48
2022-12-22T09:39:17.196Z,15.02
2022-12-22T09:41:49.519Z,14.68
2022-12-22T09:44:26.556Z,16.50
2022-12-22T09:46:57.030Z,15.90
2022-12-22T09:49:28.401Z,13.68
2022-12-22T09:52:01.064Z,13.90
2022-12-22T09:54:31.213Z,16.00
2022-12-22T09:57:00.165Z,15.98
2022-12-22T09:59:31.395Z,15.70
2022-12-22T10:02:16.862Z,15.35
2022-12-22T10:05:05.242Z,14.85
2022-12-22T10:07:36.999Z,19.45
2022-12-22T10:10:10.379Z,14.40
2022-12-22T10:12:38.783Z,15.93
2022-12-22T10:15:16.774Z,17.25
2022-12-22T10:17:51.080Z,19.98
2022-12-22T10:20:26.617Z,13.20
2022-12-22T10:23:02.310Z,18.23
2022-12-22T10:26:08.840Z,16.80
2022-12-22T10:28:26.448Z,15.65
2022-12-22T10:31:14.587Z,16.77
2022-12-22T10:33:47.856Z,17.02
2022-12-22T10:36:20.719Z,18.55
2022-12-22T10:39:03.599Z,18.35
2022-12-22T10:41:36.986Z,17.55
2022-12-22T10:44:09.843Z,20.42
2022-12-22T10:46:42.300Z,18.73
2022-12-22T10:49:18.173Z,18.60
2022-12-22T10:51:51.040Z,18.13
2022-12-22T10:54:33.448Z,21.67
2022-12-22T10:57:04.852Z,20.42
2022-12-22T10:59:37.072Z,18.92
2022-12-22T11:02:26.150Z,19.95
2022-12-22T11:04:55.871Z,16.38
2022-12-22T11:07:25.607Z,17.48
2022-12-22T11:09:55.473Z,20.38
2022-12-22T11:12:32.709Z,20.75
2022-12-22T11:15:05.352Z,17.38
2022-12-22T11:17:40.465Z,16.23
2022-12-22T11:20:32.650Z,18.38
2022-12-22T11:23:05.811Z,20.83
2022-12-22T11:25:46.291Z,15.93
2022-12-22T11:28:38.152Z,33.80
2022-12-22T11:31:24.437Z,21.77
2022-12-22T11:34:05.695Z,17.27
2022-12-22T11:36:47.740Z,16.38
2022-12-22T11:39:17.729Z,18.00
2022-12-22T11:42:02.276Z,19.08
2022-12-22T11:44:42.483Z,20.10
2022-12-22T11:47:27.430Z,16.17
2022-12-22T11:50:57.437Z,20.58
2022-12-22T11:53:08.030Z,19.02
2022-12-22T11:55:41.683Z,17.02
2022-12-22T11:58:32.395Z,22.08
2022-12-22T12:01:17.523Z,17.33
2022-12-22T12:04:12.607Z,19.30
2022-12-22T12:06:57.189Z,21.90
2022-12-22T12:09:37.278Z,15.98
2022-12-22T12:12:14.175Z,22.77
2022-12-22T12:14:53.297Z,15.55
2022-12-22T12:17:31.233Z,15.52
2022-12-22T12:20:19.080Z,16.27
2022-12-22T12:22:56.357Z,19.13
2022-12-22T12:25:30.651Z,17.65
2022-12-22T12:28:13.318Z,18.33
2022-12-22T12:30:51.733Z,15.27
2022-12-22T12:33:26.793Z,13.10
2022-12-22T12:36:03.754Z,16.13
2022-12-22T12:39:07.647Z,14.43
2022-12-22T12:41:37.790Z,15.27
2022-12-22T12:44:07.600Z,17.38
2022-12-22T12:46:56.090Z,14.63
2022-12-22T12:50:10.505Z,13.85
2022-12-22T12:53:15.137Z,14.02
2022-12-22T12:55:58.440Z,13.23
2022-12-22T12:58:50.154Z,15.90
2022-12-22T13:01:56.158Z,18.50
2022-12-22T13:05:16.368Z,12.07
2022-12-22T13:08:25.181Z,16.35
2022-12-22T13:11:52.608Z,15.65
2022-12-22T13:14:12.037Z,17.52
2022-12-22T13:16:41.277Z,15.75
2022-12-22T13:19:21.805Z,16.85
2022-12-22T13:21:53.471Z,16.17
2022-12-22T13:24:36.206Z,20.90
2022-12-22T13:27:12.025Z,15.73
2022-12-22T13:29:46.690Z,31.75
2022-12-22T13:32:25.163Z,58.58
2022-12-22T13:37:55.356Z,59.80
2022-12-22T13:40:27.636Z,35.75
2022-12-22T13:42:59.015Z,215.45
2022-12-22T13:45:35.066Z,101.43
2022-12-22T13:48:09.635Z,71.28
2022-12-22T13:50:40.960Z,66.45
2022-12-22T13:53:22.861Z,45.53
2022-12-22T13:56:02.942Z,27.77
2022-12-22T13:58:35.247Z,19.88
2022-12-22T14:01:14.836Z,22.45
2022-12-22T14:04:04.901Z,29.40
2022-12-22T14:06:35.779Z,23.65
2022-12-22T14:09:21.395Z,75.47
2022-12-22T14:11:53.871Z,43.92
2022-12-22T14:14:28.320Z,29.27
2022-12-22T14:16:58.890Z,14.68
2022-12-22T14:19:28.870Z,17.48
2022-12-22T14:22:04.649Z,18.23
2022-12-22T14:24:40.325Z,12.77
2022-12-22T14:27:19.585Z,20.15
2022-12-22T14:29:48.308Z,18.70
2022-12-22T14:32:39.337Z,14.00
2022-12-22T14:35:23.686Z,14.27
2022-12-22T14:37:54.458Z,17.58
2022-12-22T14:40:34.556Z,17.83
2022-12-22T14:43:07.283Z,35.38
2022-12-22T14:45:35.692Z,21.33
2022-12-22T14:48:08.771Z,38.30
2022-12-22T14:50:40.097Z,45.35
2022-12-22T14:53:08.607Z,68.20
2022-12-22T14:55:41.024Z,58.70
2022-12-22T14:58:15.070Z,93.97
2022-12-22T15:00:44.949Z,83.65
2022-12-22T15:03:32.309Z,59.55
2022-12-22T15:06:24.216Z,58.58
2022-12-22T15:09:47.174Z,90.07
2022-12-22T15:12:14.287Z,133.00
2022-12-22T15:14:47.712Z,101.90
2022-12-22T15:17:25.673Z,97.30
2022-12-22T15:19:59.289Z,87.90
2022-12-22T15:22:27.644Z,146.23
2022-12-22T15:24:55.989Z,100.60
2022-12-22T15:27:24.269Z,87.07
2022-12-22T15:29:54.469Z,74.93
2022-12-22T15:32:22.715Z,57.63
2022-12-22T15:34:51.000Z,227.73
2022-12-22T15:37:19.281Z,63.88
2022-12-22T15:39:53.750Z,215.55
2022-12-22T15:42:22.212Z,51.05
2022-12-22T15:44:50.454Z,65.15
2022-12-22T15:47:21.308Z,272.00
2022-12-22T15:49:49.536Z,48.88
2022-12-22T15:52:17.783Z,27.48
2022-12-22T15:54:46.019Z,68.60
2022-12-22T15:57:15.255Z,50.05
2022-12-22T15:59:43.510Z,82.68
2022-12-22T16:02:13.286Z,51.90
2022-12-22T16:04:46.215Z,64.38
2022-12-22T16:07:14.520Z,57.30
2022-12-22T16:09:44.935Z,42.67
2022-12-22T16:12:21.419Z,65.88
2022-12-22T16:14:54.097Z,29.60
2022-12-22T16:17:23.905Z,47.95
2022-12-22T16:19:56.810Z,33.20
2022-12-22T16:22:32.486Z,28.63
2022-12-22T16:25:03.469Z,34.25
2022-12-22T16:27:32.321Z,28.67
2022-12-22T16:30:00.585Z,35.13
2022-12-22T16:32:31.413Z,68.85
2022-12-22T16:35:08.049Z,114.50
2022-12-22T16:37:36.295Z,41.83
2022-12-22T16:40:05.215Z,32.65
2022-12-22T16:45:23.075Z,30.10
2022-12-22T16:47:53.956Z,34.95
2022-12-22T16:50:33.377Z,35.05
2022-12-22T16:53:02.171Z,26.13
2022-12-22T16:55:30.592Z,22.08
2022-12-22T16:57:58.980Z,55.70
2022-12-22T17:00:29.365Z,92.22
2022-12-22T17:03:01.078Z,18.33
2022-12-22T17:05:43.998Z,82.50
2022-12-22T17:08:21.769Z,24.63
2022-12-22T17:10:50.477Z,32.55
2022-12-22T17:13:19.419Z,22.50
2022-12-22T17:15:47.734Z,15.68
2022-12-22T17:18:17.864Z,42.70
2022-12-22T17:20:53.408Z,45.22
2022-12-22T17:23:31.620Z,119.63
2022-12-22T17:26:01.605Z,75.97
2022-12-22T17:28:30.133Z,77.28
2022-12-22T17:30:58.533Z,227.82
2022-12-22T17:33:26.941Z,108.20
2022-12-22T17:35:58.509Z,117.32
2022-12-22T17:38:28.941Z,159.75
2022-12-22T17:40:57.726Z,75.80
2022-12-22T17:43:26.016Z,25.65
2022-12-22T17:45:54.352Z,45.13
2022-12-22T17:48:22.609Z,53.45
2022-12-22T17:50:50.906Z,19.30
2022-12-22T17:53:21.986Z,22.73
2022-12-22T17:56:09.732Z,22.90
2022-12-22T17:58:43.346Z,21.52
2022-12-22T18:01:21.695Z,15.45
2022-12-22T18:03:56.912Z,22.30
2022-12-22T18:06:28.453Z,12.30
2022-12-22T18:08:59.095Z,15.27
2022-12-22T18:11:28.337Z,9.23
2022-12-22T18:14:00.160Z,11.77
2022-12-22T18:16:29.431Z,17.45
2022-12-22T18:19:00.953Z,11.52
2022-12-22T18:21:29.978Z,8.90
2022-12-22T18:23:59.791Z,9.65
2022-12-22T18:26:29.804Z,11.77
2022-12-22T18:28:58.602Z,9.98
2022-12-22T18:31:27.180Z,12.00
2022-12-22T18:33:58.825Z,12.95
2022-12-22T18:36:37.987Z,12.60
2022-12-22T18:39:17.331Z,10.82
2022-12-22T18:41:46.560Z,11.98
2022-12-22T18:44:17.947Z,10.57
2022-12-22T18:46:49.939Z,14.18
2022-12-22T18:49:18.439Z,18.67
2022-12-22T18:51:47.513Z,20.75
2022-12-22T18:54:29.482Z,26.55
2022-12-22T18:56:58.334Z,21.13
2022-12-22T18:59:29.086Z,16.40
2022-12-22T19:02:03.407Z,18.67
2022-12-22T19:04:32.203Z,17.27
2022-12-22T19:07:06.111Z,16.27
2022-12-22T19:09:36.006Z,17.88
2022-12-22T19:12:15.329Z,13.65
2022-12-22T19:14:51.163Z,15.13
2022-12-22T19:17:22.483Z,20.58
2022-12-22T19:19:51.078Z,20.73
2022-12-22T19:22:19.674Z,27.10
2022-12-22T19:24:57.407Z,19.58
2022-12-22T19:27:27.547Z,21.15
2022-12-22T19:30:04.624Z,22.75
2022-12-22T19:32:39.594Z,27.10
2022-12-22T19:35:16.160Z,24.50
2022-12-22T19:37:44.844Z,21.45
2022-12-22T19:40:15.929Z,20.95
2022-12-22T19:42:46.975Z,24.50
2022-12-22T19:45:23.043Z,35.05
2022-12-22T19:47:51.789Z,42.60
2022-12-22T19:50:24.894Z,20.17
2022-12-22T19:52:53.973Z,23.48
2022-12-22T19:55:26.796Z,27.23
2022-12-22T19:57:58.844Z,26.23
2022-12-22T20:00:29.029Z,23.42
2022-12-22T20:03:01.225Z,27.05
2022-12-22T20:05:31.626Z,23.98
2022-12-22T20:08:04.343Z,42.42
2022-12-22T20:10:35.986Z,27.02
2022-12-22T20:13:14.738Z,33.17
2022-12-22T20:15:47.077Z,35.83
2022-12-22T20:18:21.810Z,34.33
2022-12-22T20:21:01.303Z,26.88
2022-12-22T20:23:35.183Z,26.67
2022-12-22T20:26:07.921Z,29.27
2022-12-22T20:28:38.124Z,28.35
2022-12-22T20:31:08.151Z,38.42
2022-12-22T20:33:39.611Z,53.00
2022-12-22T20:36:17.665Z,46.30
2022-12-22T20:38:46.636Z,71.60
2022-12-22T20:41:16.624Z,101.25
2022-12-22T20:43:45.140Z,94.90
2022-12-22T20:46:16.570Z,65.40
2022-12-22T20:48:48.028Z,103.13
2022-12-22T20:51:18.962Z,85.72
2022-12-22T20:53:48.431Z,89.50
2022-12-22T20:56:25.520Z,50.92
2022-12-22T20:58:54.112Z,43.38
2022-12-22T21:01:23.538Z,38.60
2022-12-22T21:03:52.367Z,33.47
2022-12-22T21:06:26.416Z,40.42
2022-12-22T21:08:56.708Z,51.08
2022-12-22T21:11:27.252Z,31.48
2022-12-22T21:13:56.226Z,75.97
2022-12-22T21:16:27.212Z,94.22
2022-12-22T21:18:56.214Z,58.25
2022-12-22T21:21:24.653Z,81.43
2022-12-22T21:23:53.010Z,52.85
2022-12-22T21:26:25.755Z,68.53
2022-12-22T21:28:55.784Z,94.88
2022-12-22T21:31:24.069Z,134.85
2022-12-22T21:33:55.328Z,91.85
2022-12-22T21:36:29.375Z,63.05
2022-12-22T21:39:00.464Z,73.55
2022-12-22T21:41:42.607Z,176.45
2022-12-22T21:44:13.442Z,124.28
2022-12-22T21:46:43.084Z,81.03
2022-12-22T21:49:19.835Z,56.08
2022-12-22T21:51:48.703Z,73.03
2022-12-22T21:54:21.847Z,77.22
2022-12-22T21:56:50.720Z,84.55
2022-12-22T21:59:20.705Z,84.97
2022-12-22T22:01:53.500Z,164.10
2022-12-22T22:04:22.365Z,125.75
2022-12-22T22:06:50.793Z,67.65
2022-12-22T22:09:19.078Z,212.40
2022-12-22T22:12:04.789Z,199.80
2022-12-22T22:14:37.600Z,77.25
2022-12-22T22:17:06.160Z,75.20
2022-12-22T22:19:34.825Z,70.15
2022-12-22T22:22:04.433Z,89.57
2022-12-22T22:24:33.071Z,59.95
2022-12-22T22:27:01.557Z,86.45
2022-12-22T22:29:29.979Z,50.85
2022-12-22T22:32:14.729Z,72.35
2022-12-22T22:40:51.237Z,55.10
2022-12-22T22:43:20.071Z,78.80
2022-12-22T22:52:19.975Z,55.13
2022-12-22T22:57:50.320Z,92.70
2022-12-22T23:00:40.482Z,51.47
2022-12-22T23:03:09.399Z,44.58
2022-12-22T23:05:38.191Z,126.57
2022-12-22T23:11:18.857Z,31.92
2022-12-22T23:13:47.249Z,84.15
2022-12-22T23:16:35.731Z,49.58
2022-12-22T23:19:23.097Z,60.50
2022-12-22T23:21:56.752Z,64.60
2022-12-22T23:27:42.552Z,100.18
2022-12-22T23:30:18.681Z,63.58
2022-12-22T23:32:47.306Z,85.45
2022-12-22T23:37:58.660Z,57.00
2022-12-22T23:41:32.393Z,63.33
2022-12-22T23:48:34.841Z,63.83
2022-12-22T23:59:59.116Z,78.60
